Time;durP1;ratioP1;P1;durP2;ratioP2;P2;SDS_P1;SDS_P2;PMS_P1;PMS_P2;Temp;Humidity;BMP_temperature;BMP_pressure;BME280_temperature;BME280_humidity;BME280_pressure;Samples;Min_cycle;Max_cycle;Signal;HPM_P1;HPM_P2
2023/10/17 00:00:17;;;;;;;;;;;12.50;99.90;;;;;;4929443;29;19906;-77
2023/10/17 00:02:43;;;;;;;;;;;12.50;99.90;;;;;;4950248;29;19907;-76
2023/10/17 00:05:10;;;;;;;;;;;12.50;99.90;;;;;;4936456;29;19958;-73
2023/10/17 00:07:35;;;;;;;;;;;12.50;99.90;;;;;;4935989;29;19911;-77
2023/10/17 00:10:01;;;;;;;;;;;12.50;99.90;;;;;;4935607;29;19906;-77
2023/10/17 00:12:35;;;;;;;;;;;12.50;99.90;;;;;;4923126;29;19914;-77
2023/10/17 00:15:09;;;;;;;;;;;12.60;99.90;;;;;;4919957;29;19915;-73
2023/10/17 00:17:34;;;;;;;;;;;12.60;99.90;;;;;;4920489;29;19907;-73
2023/10/17 00:20:07;;;;;;;;;;;12.70;99.90;;;;;;4903431;29;19915;-76
2023/10/17 00:22:35;;;;;;;;;;;12.70;99.90;;;;;;4920030;29;19914;-76
2023/10/17 00:25:09;;;;;;;;;;;12.70;99.90;;;;;;4920593;29;20285;-73
2023/10/17 00:27:35;;;;;;;;;;;12.70;99.90;;;;;;4920326;29;20402;-77
2023/10/17 00:30:00;;;;;;;;;;;12.70;99.90;;;;;;4920685;29;19950;-73
2023/10/17 00:32:31;;;;;;;;;;;12.70;99.90;;;;;;4920034;29;19992;-73
2023/10/17 00:34:56;;;;;;;;;;;12.80;99.90;;;;;;4920044;29;19911;-76
2023/10/17 00:37:30;;;;;;;;;;;12.90;99.90;;;;;;4917023;29;19914;-77
2023/10/17 00:39:56;;;;;;;;;;;13.00;99.90;;;;;;4958286;29;19989;-77
2023/10/17 00:42:29;;;;;;;;;;;13.00;99.90;;;;;;4958223;29;20285;-73
2023/10/17 00:44:55;;;;;;;;;;;13.10;99.90;;;;;;4955918;29;19911;-73
2023/10/17 00:47:22;;;;;;;;;;;13.00;99.90;;;;;;4926919;29;19915;-76
2023/10/17 00:49:49;;;;;;;;;;;13.10;99.90;;;;;;4920109;29;19918;-73
2023/10/17 00:52:22;;;;;;;;;;;13.10;99.90;;;;;;4919909;29;19908;-73
2023/10/17 00:54:50;;;;;;;;;;;13.10;99.90;;;;;;4918836;29;20022;-73
2023/10/17 00:57:17;;;;;;;;;;;13.20;99.90;;;;;;4919876;29;20320;-73
2023/10/17 00:59:49;;;;;;;;;;;13.20;99.90;;;;;;4919902;29;19914;-73
2023/10/17 01:02:15;;;;;;;;;;;13.30;99.90;;;;;;4919742;29;20259;-76
2023/10/17 01:04:44;;;;;;;;;;;13.30;99.90;;;;;;4919864;29;19935;-76
2023/10/17 01:07:23;;;;;;;;;;;13.40;99.90;;;;;;4919864;29;20298;-73
2023/10/17 01:09:51;;;;;;;;;;;13.50;99.90;;;;;;4919244;29;19907;-77
2023/10/17 01:12:17;;;;;;;;;;;13.50;99.90;;;;;;4906659;29;20020;-77
2023/10/17 01:14:42;;;;;;;;;;;13.60;99.90;;;;;;4900485;29;20382;-73
2023/10/17 01:17:11;;;;;;;;;;;13.60;99.90;;;;;;4900889;29;19922;-77
2023/10/17 01:19:37;;;;;;;;;;;13.50;99.90;;;;;;4900621;29;19918;-77
2023/10/17 01:22:03;;;;;;;;;;;13.60;99.90;;;;;;4910289;29;20338;-73
2023/10/17 01:24:29;;;;;;;;;;;13.60;99.90;;;;;;4937825;29;19906;-73
2023/10/17 01:26:57;;;;;;;;;;;13.60;99.90;;;;;;4937629;29;20302;-77
2023/10/17 01:29:23;;;;;;;;;;;13.60;99.90;;;;;;4938341;29;19907;-77
2023/10/17 01:31:50;;;;;;;;;;;13.50;99.90;;;;;;4938265;29;20354;-76
2023/10/17 01:34:16;;;;;;;;;;;13.60;99.90;;;;;;4920398;29;19922;-73
2023/10/17 01:36:44;;;;;;;;;;;13.60;99.90;;;;;;4919175;29;19910;-73
2023/10/17 01:39:10;;;;;;;;;;;13.60;99.90;;;;;;4918963;29;19913;-74
2023/10/17 01:41:36;;;;;;;;;;;13.60;99.90;;;;;;4919146;29;19911;-77
2023/10/17 01:44:02;;;;;;;;;;;13.60;99.90;;;;;;4918917;29;20291;-77
2023/10/17 01:46:30;;;;;;;;;;;13.60;99.90;;;;;;4917932;29;19933;-73
2023/10/17 01:48:56;;;;;;;;;;;13.60;99.90;;;;;;4918345;29;19914;-73
2023/10/17 01:51:23;;;;;;;;;;;13.60;99.90;;;;;;4918837;29;19918;-73
2023/10/17 01:53:50;;;;;;;;;;;13.60;99.90;;;;;;4918614;29;19915;-77
2023/10/17 01:56:16;;;;;;;;;;;13.60;99.90;;;;;;4919086;29;19911;-77
2023/10/17 01:58:45;;;;;;;;;;;13.60;99.90;;;;;;4918706;29;19959;-76
2023/10/17 02:01:13;;;;;;;;;;;13.60;99.90;;;;;;4918514;29;20285;-73
2023/10/17 02:03:39;;;;;;;;;;;13.60;99.90;;;;;;4918533;29;20007;-73
2023/10/17 02:06:13;;;;;;;;;;;13.60;99.90;;;;;;4918968;29;19990;-73
2023/10/17 02:08:39;;;;;;;;;;;13.60;99.90;;;;;;4918395;29;19950;-77
2023/10/17 02:11:08;;;;;;;;;;;13.60;99.90;;;;;;4916355;29;20290;-77
2023/10/17 02:13:35;;;;;;;;;;;13.60;99.90;;;;;;4899518;29;19907;-77
2023/10/17 02:16:00;;;;;;;;;;;13.50;99.90;;;;;;4899777;29;19957;-73
2023/10/17 02:18:26;;;;;;;;;;;13.50;99.90;;;;;;4899668;29;19942;-76
2023/10/17 02:20:51;;;;;;;;;;;13.50;99.90;;;;;;4899523;29;19914;-73
2023/10/17 02:23:20;;;;;;;;;;;13.50;99.90;;;;;;4899222;29;20252;-77
2023/10/17 02:25:45;;;;;;;;;;;13.60;99.90;;;;;;4899557;29;19907;-73
2023/10/17 02:28:11;;;;;;;;;;;13.60;99.90;;;;;;4898866;29;19914;-73
2023/10/17 02:30:36;;;;;;;;;;;13.60;99.90;;;;;;4899304;29;20351;-77
2023/10/17 02:33:11;;;;;;;;;;;13.70;99.90;;;;;;4899395;29;19907;-76
2023/10/17 02:35:39;;;;;;;;;;;13.70;99.90;;;;;;4899219;29;19919;-73
2023/10/17 02:38:05;;;;;;;;;;;13.70;99.90;;;;;;4898348;29;19908;-73
2023/10/17 02:40:34;;;;;;;;;;;13.70;99.90;;;;;;4898923;29;19908;-73
2023/10/17 02:43:00;;;;;;;;;;;13.80;99.90;;;;;;4882068;29;19908;-76
2023/10/17 02:45:25;;;;;;;;;;;13.80;99.90;;;;;;4904821;29;19926;-73
2023/10/17 02:47:52;;;;;;;;;;;13.80;99.90;;;;;;4931702;29;19914;-73
2023/10/17 02:52:52;;;;;;;;;;;13.90;99.90;;;;;;4936938;29;19907;-73
2023/10/17 02:55:24;;;;;;;;;;;13.90;99.90;;;;;;4936546;29;19914;-73
2023/10/17 02:57:52;;;;;;;;;;;13.90;99.90;;;;;;4936754;29;19910;-73
2023/10/17 03:00:22;;;;;;;;;;;13.90;99.90;;;;;;4941696;29;19910;-77
2023/10/17 03:02:55;;;;;;;;;;;13.90;99.90;;;;;;4950708;29;19938;-77
2023/10/17 03:05:21;;;;;;;;;;;14.00;99.90;;;;;;4936364;29;19906;-73
2023/10/17 03:07:50;;;;;;;;;;;14.00;99.90;;;;;;4936488;29;19906;-74
2023/10/17 03:10:20;;;;;;;;;;;14.00;99.90;;;;;;4935377;29;19954;-77
2023/10/17 03:12:55;;;;;;;;;;;14.00;99.90;;;;;;4921198;29;20009;-77
2023/10/17 03:15:23;;;;;;;;;;;14.00;99.90;;;;;;4916742;29;19962;-77
2023/10/17 03:17:54;;;;;;;;;;;14.00;99.90;;;;;;4917396;29;19948;-73
2023/10/17 03:20:20;;;;;;;;;;;14.00;99.90;;;;;;4916637;29;19911;-73
2023/10/17 03:22:46;;;;;;;;;;;14.00;99.90;;;;;;4917313;29;19914;-76
2023/10/17 03:25:20;;;;;;;;;;;14.10;99.90;;;;;;4900344;29;19907;-77
2023/10/17 03:27:49;;;;;;;;;;;14.10;99.90;;;;;;4933732;29;20042;-77
2023/10/17 03:30:19;;;;;;;;;;;14.20;99.90;;;;;;4955417;29;19907;-73
2023/10/17 03:35:26;;;;;;;;;;;14.20;99.90;;;;;;4955178;29;19918;-73
2023/10/17 03:37:54;;;;;;;;;;;14.20;99.90;;;;;;4955650;29;19906;-73
2023/10/17 03:40:30;;;;;;;;;;;14.30;99.90;;;;;;4954816;29;19985;-73
2023/10/17 03:43:11;;;;;;;;;;;14.30;99.90;;;;;;4937440;29;19986;-73
2023/10/17 03:45:43;;;;;;;;;;;14.20;99.90;;;;;;4947482;29;19954;-73
2023/10/17 03:48:13;;;;;;;;;;;14.30;99.90;;;;;;4918808;29;19915;-77
2023/10/17 03:53:14;;;;;;;;;;;14.40;99.90;;;;;;4921284;29;19907;-77
2023/10/17 03:55:42;;;;;;;;;;;14.40;99.90;;;;;;4919704;29;20426;-77
2023/10/17 04:00:49;;;;;;;;;;;14.50;99.90;;;;;;4921413;29;19975;-77
2023/10/17 04:03:21;;;;;;;;;;;14.50;99.90;;;;;;4920683;29;19911;-77
2023/10/17 04:05:51;;;;;;;;;;;14.50;99.90;;;;;;4920952;29;19907;-77
2023/10/17 04:08:25;;;;;;;;;;;14.50;99.90;;;;;;4903869;29;19938;-73
2023/10/17 04:11:17;;;;;;;;;;;14.50;99.90;;;;;;4919902;29;19929;-73
2023/10/17 04:13:37;;;;;;;;;;;14.60;99.90;;;;;;4901982;29;19908;-73
2023/10/17 04:16:10;;;;;;;;;;;14.60;99.90;;;;;;4901760;29;19918;-77
2023/10/17 04:18:39;;;;;;;;;;;14.60;99.90;;;;;;4906465;29;19922;-77
2023/10/17 04:21:18;;;;;;;;;;;14.60;99.90;;;;;;4920283;29;19962;-73
2023/10/17 04:23:44;;;;;;;;;;;14.70;99.90;;;;;;4920213;29;20438;-73
2023/10/17 04:26:17;;;;;;;;;;;14.70;99.90;;;;;;4920262;29;19911;-73
2023/10/17 04:28:50;;;;;;;;;;;14.70;99.90;;;;;;4920298;29;20366;-77
2023/10/17 04:31:25;;;;;;;;;;;14.80;99.90;;;;;;4920404;29;19914;-77
2023/10/17 04:34:06;;;;;;;;;;;14.80;99.90;;;;;;4920078;29;19914;-77
2023/10/17 04:36:37;;;;;;;;;;;14.80;99.90;;;;;;4920321;29;19914;-73
2023/10/17 04:39:18;;;;;;;;;;;14.90;99.90;;;;;;4918957;29;20426;-73
2023/10/17 04:44:17;;;;;;;;;;;14.90;99.90;;;;;;4920332;29;19911;-77
2023/10/17 04:47:26;;;;;;;;;;;14.90;99.90;;;;;;4949223;29;20002;-77
2023/10/17 04:49:31;;;;;;;;;;;15.00;99.90;;;;;;4939434;29;19906;-73
2023/10/17 04:52:06;;;;;;;;;;;15.00;99.90;;;;;;4939081;29;20513;-73
2023/10/17 04:57:07;;;;;;;;;;;15.10;99.90;;;;;;4937349;29;19910;-77
2023/10/17 05:00:15;;;;;;;;;;;15.10;99.90;;;;;;4937568;29;19950;-73
2023/10/17 06:18:52;;;;;;;;;;;15.50;99.90;;;;;;4911649;29;19925;-76
2023/10/17 06:21:19;;;;;;;;;;;15.50;99.90;;;;;;4919418;29;19932;-73
2023/10/17 06:34:15;;;;;;;;;;;15.40;99.90;;;;;;4898337;29;20294;-73
2023/10/17 06:36:41;;;;;;;;;;;15.40;99.90;;;;;;4917515;29;19911;-74
2023/10/17 06:39:15;;;;;;;;;;;15.40;99.90;;;;;;4913422;29;19919;-73
2023/10/17 06:41:41;;;;;;;;;;;15.50;99.90;;;;;;4914140;29;19915;-77
2023/10/17 06:44:10;;;;;;;;;;;15.50;99.90;;;;;;4911749;29;20009;-76
2023/10/17 06:46:48;;;;;;;;;;;15.50;99.90;;;;;;4900258;29;20314;-73
2023/10/17 06:49:30;;;;;;;;;;;15.60;99.90;;;;;;4912693;29;20398;-73
2023/10/17 06:52:54;;;;;;;;;;;15.70;99.90;;;;;;4896808;29;19918;-73
2023/10/17 06:54:42;;;;;;;;;;;15.70;99.90;;;;;;4894146;29;19925;-76
2023/10/17 06:57:23;;;;;;;;;;;15.70;99.90;;;;;;4897613;29;19925;-76
2023/10/17 06:59:52;;;;;;;;;;;15.70;99.90;;;;;;4909888;29;19919;-73
2023/10/17 07:02:28;;;;;;;;;;;15.80;99.90;;;;;;4915483;29;20323;-73
2023/10/17 07:04:55;;;;;;;;;;;15.90;99.90;;;;;;4910197;29;20303;-76
2023/10/17 07:07:23;;;;;;;;;;;15.90;99.90;;;;;;4914391;29;19911;-76
2023/10/17 07:10:16;;;;;;;;;;;15.90;99.90;;;;;;4911218;29;20413;-77
2023/10/17 07:12:42;;;;;;;;;;;16.00;99.90;;;;;;4906902;29;19915;-73
2023/10/17 07:15:20;;;;;;;;;;;16.00;99.90;;;;;;4913169;29;19918;-73
2023/10/17 07:23:19;;;;;;;;;;;16.00;99.90;;;;;;4912239;29;19926;-76
2023/10/17 07:25:49;;;;;;;;;;;16.10;99.90;;;;;;4913834;29;19911;-73
2023/10/17 07:28:15;;;;;;;;;;;16.10;99.90;;;;;;4912999;29;20311;-73
2023/10/17 07:30:49;;;;;;;;;;;16.20;99.90;;;;;;4913525;29;19919;-76
2023/10/17 07:33:17;;;;;;;;;;;16.30;99.90;;;;;;4920672;29;19968;-78
2023/10/17 07:35:43;;;;;;;;;;;16.30;99.90;;;;;;4905032;29;19957;-77
2023/10/17 07:38:09;;;;;;;;;;;16.40;99.90;;;;;;4921613;29;20398;-74
2023/10/17 07:43:09;;;;;;;;;;;16.90;99.90;;;;;;4914358;29;19915;-77
2023/10/17 07:45:41;;;;;;;;;;;17.40;99.90;;;;;;4914253;29;19931;-76
2023/10/17 07:48:20;;;;;;;;;;;17.40;99.90;;;;;;4909819;29;19971;-77
2023/10/17 07:50:47;;;;;;;;;;;17.30;99.90;;;;;;4906010;29;20000;-73
2023/10/17 07:53:19;;;;;;;;;;;17.20;99.90;;;;;;4890156;29;19967;-73
2023/10/17 07:55:49;;;;;;;;;;;17.10;99.90;;;;;;4910710;29;19966;-76
2023/10/17 07:58:30;;;;;;;;;;;17.10;99.90;;;;;;4892160;29;19915;-77
2023/10/17 08:00:56;;;;;;;;;;;17.20;99.90;;;;;;4906214;29;20311;-76
2023/10/17 08:03:27;;;;;;;;;;;17.30;99.90;;;;;;4904953;29;19944;-77
2023/10/17 08:06:05;;;;;;;;;;;17.40;99.90;;;;;;4906091;29;20845;-74
2023/10/17 08:08:33;;;;;;;;;;;17.50;99.90;;;;;;4895805;29;20010;-75
2023/10/17 08:10:59;;;;;;;;;;;17.70;99.90;;;;;;4909044;29;19923;-76
2023/10/17 08:13:28;;;;;;;;;;;17.80;99.90;;;;;;4913949;29;19914;-77
2023/10/17 08:16:04;;;;;;;;;;;17.90;99.90;;;;;;4895145;29;20071;-74
2023/10/17 08:18:39;;;;;;;;;;;18.00;99.90;;;;;;4895435;29;19911;-74
2023/10/17 08:23:46;;;;;;;;;;;18.20;99.90;;;;;;4914280;29;19907;-77
2023/10/17 08:26:13;;;;;;;;;;;18.20;99.90;;;;;;4905736;29;20006;-77
2023/10/17 08:33:47;;;;;;;;;;;19.00;99.90;;;;;;4912593;29;19907;-74
2023/10/17 08:36:13;;;;;;;;;;;19.10;99.90;;;;;;4910967;29;19927;-74
2023/10/17 08:38:40;;;;;;;;;;;19.20;99.90;;;;;;4905755;29;19915;-77
2023/10/17 08:41:06;;;;;;;;;;;19.30;99.90;;;;;;4915516;29;19962;-77
2023/10/17 08:43:33;;;;;;;;;;;19.40;99.90;;;;;;4917008;29;19961;-74
2023/10/17 08:45:58;;;;;;;;;;;19.50;99.90;;;;;;4911890;29;19991;-74
2023/10/17 08:48:24;;;;;;;;;;;19.80;99.90;;;;;;4914826;29;19919;-78
2023/10/17 08:50:54;;;;;;;;;;;19.90;99.90;;;;;;4906030;29;19911;-77
2023/10/17 08:53:21;;;;;;;;;;;19.90;99.90;;;;;;4881206;29;19919;-77
2023/10/17 08:55:48;;;;;;;;;;;19.80;99.90;;;;;;4899177;29;20394;-74
2023/10/17 08:58:14;;;;;;;;;;;19.90;99.90;;;;;;4897976;29;19918;-74
2023/10/17 09:03:25;;;;;;;;;;;20.20;99.90;;;;;;4906136;29;19911;-77
2023/10/17 09:11:29;;;;;;;;;;;21.40;99.90;;;;;;4910719;29;19922;-74
2023/10/17 09:16:42;;;;;;;;;;;20.80;99.90;;;;;;4907852;29;19919;-78
2023/10/17 09:19:10;;;;;;;;;;;20.20;99.90;;;;;;4913247;29;20353;-77
2023/10/17 09:21:41;;;;;;;;;;;20.10;99.90;;;;;;4906842;29;19962;-75
2023/10/17 09:24:25;;;;;;;;;;;20.00;99.90;;;;;;4915829;29;19966;-74
2023/10/17 09:26:51;;;;;;;;;;;19.90;99.90;;;;;;4904397;29;20295;-76
2023/10/17 09:29:17;;;;;;;;;;;20.10;99.90;;;;;;4915997;29;19915;-74
2023/10/17 09:31:44;;;;;;;;;;;20.00;99.90;;;;;;4916151;29;19915;-77
2023/10/17 09:34:13;;;;;;;;;;;20.00;99.90;;;;;;4915217;29;19911;-74
2023/10/17 09:36:42;;;;;;;;;;;20.10;99.90;;;;;;4914456;29;20074;-74
2023/10/17 09:39:18;;;;;;;;;;;20.30;99.90;;;;;;4915265;29;19915;-77
2023/10/17 09:41:44;;;;;;;;;;;20.40;99.90;;;;;;4915564;29;20310;-74
2023/10/17 09:44:10;;;;;;;;;;;20.60;99.90;;;;;;4914893;29;19955;-78
2023/10/17 09:46:37;;;;;;;;;;;20.60;99.90;;;;;;4904134;29;19927;-78
2023/10/17 09:49:05;;;;;;;;;;;20.60;99.90;;;;;;4914961;29;20239;-77
2023/10/17 09:51:33;;;;;;;;;;;20.70;99.90;;;;;;4897034;29;20374;-74
2023/10/17 09:53:59;;;;;;;;;;;20.80;99.90;;;;;;4903592;29;20024;-77
2023/10/17 09:56:28;;;;;;;;;;;20.80;99.90;;;;;;4880123;29;19925;-77
2023/10/17 09:58:55;;;;;;;;;;;20.60;99.90;;;;;;4897807;29;20086;-78
2023/10/17 10:01:25;;;;;;;;;;;20.60;99.90;;;;;;4906344;29;19919;-74
2023/10/17 10:03:52;;;;;;;;;;;20.80;99.90;;;;;;4902989;29;19911;-73
2023/10/17 10:06:30;;;;;;;;;;;20.80;99.90;;;;;;4913232;29;19915;-77
2023/10/17 10:09:17;;;;;;;;;;;20.80;99.90;;;;;;4905034;29;19919;-79
2023/10/17 10:11:48;;;;;;;;;;;20.60;99.90;;;;;;4902805;29;19922;-74
2023/10/17 10:14:15;;;;;;;;;;;20.70;99.90;;;;;;4914708;29;19922;-77
2023/10/17 10:16:51;;;;;;;;;;;20.80;99.90;;;;;;4915006;29;19915;-74
2023/10/17 10:19:17;;;;;;;;;;;20.90;99.90;;;;;;4914827;29;19911;-77
2023/10/17 10:21:54;;;;;;;;;;;21.00;99.90;;;;;;4907291;29;20488;-74
2023/10/17 10:24:24;;;;;;;;;;;21.10;99.90;;;;;;4909112;29;19907;-78
2023/10/17 10:27:09;;;;;;;;;;;21.10;99.90;;;;;;4905956;29;19912;-76
2023/10/17 10:29:35;;;;;;;;;;;21.30;99.90;;;;;;4899608;29;19908;-74
2023/10/17 10:32:06;;;;;;;;;;;21.40;99.90;;;;;;4908635;29;19915;-77
2023/10/17 10:34:35;;;;;;;;;;;21.40;99.90;;;;;;4900273;29;19915;-77
2023/10/17 10:37:01;;;;;;;;;;;21.40;99.90;;;;;;4912683;29;20212;-74
2023/10/17 10:39:26;;;;;;;;;;;21.50;99.90;;;;;;4905409;29;19930;-77
2023/10/17 10:42:06;;;;;;;;;;;21.80;99.90;;;;;;4911944;29;19926;-74
2023/10/17 10:44:41;;;;;;;;;;;21.70;99.90;;;;;;4910206;29;19915;-74
2023/10/17 10:47:07;;;;;;;;;;;21.90;99.90;;;;;;4905911;29;19923;-73
2023/10/17 10:49:33;;;;;;;;;;;22.00;99.90;;;;;;4897099;29;20057;-74
2023/10/17 10:51:58;;;;;;;;;;;21.90;99.90;;;;;;4898920;29;19990;-74
2023/10/17 10:54:44;;;;;;;;;;;22.20;99.90;;;;;;4912250;29;20013;-75
2023/10/17 10:57:12;;;;;;;;;;;22.50;99.90;;;;;;4899225;29;19923;-77
2023/10/17 10:59:47;;;;;;;;;;;22.50;99.90;;;;;;4911608;29;19967;-77
2023/10/17 11:02:13;;;;;;;;;;;22.50;99.90;;;;;;4912650;29;19937;-74
2023/10/17 11:04:39;;;;;;;;;;;22.50;99.90;;;;;;4914341;29;20719;-77
2023/10/17 11:07:23;;;;;;;;;;;22.60;99.90;;;;;;4910620;29;19918;-74
2023/10/17 11:10:03;;;;;;;;;;;22.90;99.90;;;;;;4912896;29;19911;-78
2023/10/17 11:12:28;;;;;;;;;;;23.10;99.90;;;;;;4911875;29;20417;-75
2023/10/17 11:15:16;;;;;;;;;;;22.90;99.90;;;;;;4900859;29;19919;-79
2023/10/17 11:17:42;;;;;;;;;;;22.70;99.90;;;;;;4908840;29;19911;-78
2023/10/17 11:20:18;;;;;;;;;;;23.00;99.90;;;;;;4908476;29;19912;-77
2023/10/17 11:22:44;;;;;;;;;;;23.00;99.90;;;;;;4910171;29;19915;-73
2023/10/17 11:25:21;;;;;;;;;;;23.10;99.90;;;;;;4903752;29;19915;-78
2023/10/17 11:27:53;;;;;;;;;;;23.30;99.90;;;;;;4910388;29;19912;-79
2023/10/17 11:30:20;;;;;;;;;;;23.50;99.90;;;;;;4911296;29;20306;-78
2023/10/17 11:32:46;;;;;;;;;;;23.30;99.90;;;;;;4902032;29;19944;-74
2023/10/17 11:35:29;;;;;;;;;;;23.60;99.90;;;;;;4910872;29;19927;-74
2023/10/17 11:37:56;;;;;;;;;;;23.40;99.90;;;;;;4912617;29;20010;-78
2023/10/17 11:40:30;;;;;;;;;;;23.50;99.90;;;;;;4910770;29;19950;-77
2023/10/17 11:42:57;;;;;;;;;;;23.70;99.90;;;;;;4890881;29;20689;-79
2023/10/17 11:45:33;;;;;;;;;;;24.10;99.90;;;;;;4909732;29;19925;-78
2023/10/17 11:48:14;;;;;;;;;;;23.70;99.90;;;;;;4906185;29;19978;-78
2023/10/17 11:50:40;;;;;;;;;;;23.40;99.90;;;;;;4913010;29;20013;-79
2023/10/17 11:53:09;;;;;;;;;;;23.50;99.90;;;;;;4901476;29;20440;-77
2023/10/17 11:55:42;;;;;;;;;;;23.60;99.90;;;;;;4878229;29;20401;-78
2023/10/17 11:58:08;;;;;;;;;;;23.70;99.90;;;;;;4904021;29;19937;-78
2023/10/17 12:00:35;;;;;;;;;;;24.10;99.90;;;;;;4917187;29;20440;-78
2023/10/17 12:03:00;;;;;;;;;;;24.30;99.90;;;;;;4900961;29;19915;-79
2023/10/17 12:05:27;;;;;;;;;;;24.60;99.90;;;;;;4900027;29;20013;-79
2023/10/17 12:07:53;;;;;;;;;;;24.70;99.90;;;;;;4913645;29;19911;-79
2023/10/17 12:10:19;;;;;;;;;;;24.60;99.90;;;;;;4915471;29;20005;-74
2023/10/17 12:12:45;;;;;;;;;;;24.90;99.90;;;;;;4907305;29;20015;-73
2023/10/17 12:15:13;;;;;;;;;;;25.00;99.90;;;;;;4911266;29;20005;-79
2023/10/17 12:17:40;;;;;;;;;;;25.10;99.90;;;;;;4921086;29;19963;-74
2023/10/17 12:20:12;;;;;;;;;;;25.00;99.90;;;;;;4902856;29;19907;-78
2023/10/17 12:22:38;;;;;;;;;;;25.40;99.90;;;;;;4907687;29;19911;-78
2023/10/17 12:25:04;;;;;;;;;;;25.10;99.90;;;;;;4912114;29;19970;-74
2023/10/17 12:27:30;;;;;;;;;;;25.10;99.90;;;;;;4910682;29;20362;-73
2023/10/17 12:29:56;;;;;;;;;;;25.20;99.90;;;;;;4912787;29;19950;-79
2023/10/17 12:32:22;;;;;;;;;;;25.20;99.90;;;;;;4893152;29;19918;-79
2023/10/17 12:34:49;;;;;;;;;;;25.50;99.90;;;;;;4912770;29;19911;-77
2023/10/17 12:37:17;;;;;;;;;;;25.40;99.90;;;;;;4899236;29;19912;-73
2023/10/17 12:39:43;;;;;;;;;;;25.40;99.90;;;;;;4901919;29;19911;-72
2023/10/17 12:42:08;;;;;;;;;;;25.40;99.90;;;;;;4916170;29;19919;-78
2023/10/17 12:44:34;;;;;;;;;;;25.60;99.90;;;;;;4916369;29;19922;-78
2023/10/17 12:47:00;;;;;;;;;;;25.50;99.90;;;;;;4911123;29;19983;-80
2023/10/17 12:49:26;;;;;;;;;;;25.50;99.90;;;;;;4915473;29;19911;-74
2023/10/17 12:51:53;;;;;;;;;;;25.20;99.90;;;;;;4912423;29;20395;-74
2023/10/17 12:54:18;;;;;;;;;;;25.30;99.90;;;;;;4905570;29;19919;-79
2023/10/17 12:56:44;;;;;;;;;;;25.60;99.90;;;;;;4916544;29;20010;-78
2023/10/17 12:59:12;;;;;;;;;;;25.90;99.90;;;;;;4915929;29;19922;-78
2023/10/17 13:01:40;;;;;;;;;;;25.90;99.90;;;;;;4909134;29;19911;-77
2023/10/17 13:04:07;;;;;;;;;;;26.20;99.90;;;;;;4913879;29;19933;-75
2023/10/17 13:06:34;;;;;;;;;;;26.20;99.90;;;;;;4915489;29;19914;-78
2023/10/17 13:09:00;;;;;;;;;;;26.30;99.90;;;;;;4914964;29;19911;-78
2023/10/17 13:11:26;;;;;;;;;;;26.40;99.90;;;;;;4911653;29;19960;-78
2023/10/17 13:13:52;;;;;;;;;;;26.50;99.90;;;;;;4905702;29;19922;-74
2023/10/17 13:16:18;;;;;;;;;;;26.70;99.90;;;;;;4913555;29;20030;-74
2023/10/17 13:18:47;;;;;;;;;;;26.80;99.90;;;;;;4910547;29;20397;-74
2023/10/17 13:21:13;;;;;;;;;;;26.50;99.90;;;;;;4892468;29;20401;-77
2023/10/17 13:23:44;;;;;;;;;;;26.40;99.90;;;;;;4912350;29;19922;-77
2023/10/17 13:26:11;;;;;;;;;;;26.10;99.90;;;;;;4909084;29;19927;-78
2023/10/17 13:28:37;;;;;;;;;;;26.20;99.90;;;;;;4903859;29;19939;-75
2023/10/17 13:31:12;;;;;;;;;;;26.70;99.90;;;;;;4904608;29;20015;-75
2023/10/17 13:33:38;;;;;;;;;;;26.90;99.90;;;;;;4903035;29;19918;-74
2023/10/17 13:36:05;;;;;;;;;;;27.20;99.90;;;;;;4901430;29;19915;-78
2023/10/17 13:38:32;;;;;;;;;;;26.90;99.90;;;;;;4911603;29;19964;-78
2023/10/17 13:41:04;;;;;;;;;;;26.60;99.90;;;;;;4896943;29;20323;-77
2023/10/17 13:43:29;;;;;;;;;;;26.20;99.90;;;;;;4896909;29;19915;-74
2023/10/17 13:45:55;;;;;;;;;;;26.10;99.90;;;;;;4896333;29;20443;-74
2023/10/17 13:48:21;;;;;;;;;;;26.10;99.90;;;;;;4899693;29;19924;-74
2023/10/17 13:50:46;;;;;;;;;;;26.20;99.90;;;;;;4909260;29;19944;-78
2023/10/17 13:53:16;;;;;;;;;;;25.90;99.90;;;;;;4915116;29;19919;-78
2023/10/17 13:55:42;;;;;;;;;;;25.50;99.90;;;;;;4914105;29;19914;-74
2023/10/17 13:58:08;;;;;;;;;;;25.10;99.90;;;;;;4912271;29;20062;-78
2023/10/17 14:00:54;;;;;;;;;;;25.10;99.90;;;;;;4902179;29;20276;-74
2023/10/17 14:03:21;;;;;;;;;;;25.10;99.90;;;;;;4909800;29;19917;-78
2023/10/17 14:05:47;;;;;;;;;;;25.00;99.90;;;;;;4916112;29;19915;-74
2023/10/17 14:08:16;;;;;;;;;;;25.10;99.90;;;;;;4914586;29;19966;-73
2023/10/17 14:10:48;;;;;;;;;;;25.10;99.90;;;;;;4910754;29;19922;-74
2023/10/17 14:13:16;;;;;;;;;;;25.10;99.90;;;;;;4907907;29;19919;-78
2023/10/17 14:15:41;;;;;;;;;;;25.20;99.90;;;;;;4911994;29;19967;-74
2023/10/17 14:18:13;;;;;;;;;;;25.30;99.90;;;;;;4913011;29;19923;-77
2023/10/17 14:20:52;;;;;;;;;;;25.40;99.90;;;;;;4912072;29;20522;-74
2023/10/17 14:23:26;;;;;;;;;;;25.70;99.90;;;;;;4911135;29;19911;-74
2023/10/17 14:26:03;;;;;;;;;;;25.80;99.90;;;;;;4912112;29;19919;-78
2023/10/17 14:28:32;;;;;;;;;;;25.70;99.90;;;;;;4908177;29;20314;-78
2023/10/17 14:31:01;;;;;;;;;;;25.70;99.90;;;;;;4911281;29;19967;-78
2023/10/17 14:33:27;;;;;;;;;;;25.70;99.90;;;;;;4910949;29;19919;-73
2023/10/17 14:35:52;;;;;;;;;;;25.60;99.90;;;;;;4912103;29;19978;-74
2023/10/17 14:38:18;;;;;;;;;;;25.50;99.90;;;;;;4910825;29;19926;-77
2023/10/17 14:40:43;;;;;;;;;;;25.40;99.90;;;;;;4912393;29;19911;-77
2023/10/17 14:43:12;;;;;;;;;;;25.40;99.90;;;;;;4912488;29;20302;-77
2023/10/17 14:45:41;;;;;;;;;;;25.40;99.90;;;;;;4910961;29;19934;-77
2023/10/17 14:48:07;;;;;;;;;;;25.40;99.90;;;;;;4911984;29;19911;-74
2023/10/17 14:50:33;;;;;;;;;;;25.40;99.90;;;;;;4911086;29;19950;-74
2023/10/17 14:52:59;;;;;;;;;;;25.40;99.90;;;;;;4912567;29;19948;-78
2023/10/17 14:55:26;;;;;;;;;;;25.40;99.90;;;;;;4912012;29;19927;-78
2023/10/17 14:57:52;;;;;;;;;;;25.40;99.90;;;;;;4912148;29;19966;-78
2023/10/17 15:00:19;;;;;;;;;;;25.50;99.90;;;;;;4908975;29;20006;-74
2023/10/17 15:02:44;;;;;;;;;;;25.40;99.90;;;;;;4912762;29;19907;-73
2023/10/17 15:05:13;;;;;;;;;;;25.20;99.90;;;;;;4912262;29;20499;-78
2023/10/17 15:07:39;;;;;;;;;;;25.10;99.90;;;;;;4912718;29;20432;-75
2023/10/17 15:10:11;;;;;;;;;;;25.00;99.90;;;;;;4913085;29;19914;-78
2023/10/17 15:12:40;;;;;;;;;;;24.90;99.90;;;;;;4912390;29;20023;-74
2023/10/17 15:15:10;;;;;;;;;;;24.80;99.90;;;;;;4911347;29;20405;-73
2023/10/17 15:17:39;;;;;;;;;;;24.70;99.90;;;;;;4912623;29;19995;-78
2023/10/17 15:20:05;;;;;;;;;;;24.70;99.90;;;;;;4912297;29;19915;-77
2023/10/17 15:22:31;;;;;;;;;;;24.60;99.90;;;;;;4913051;29;19954;-74
2023/10/17 15:24:58;;;;;;;;;;;24.60;99.90;;;;;;4912560;29;20646;-78
2023/10/17 15:27:24;;;;;;;;;;;24.60;99.90;;;;;;4912841;29;20582;-74
2023/10/17 15:29:50;;;;;;;;;;;24.60;99.90;;;;;;4912043;29;19915;-78
2023/10/17 15:32:16;;;;;;;;;;;24.50;99.90;;;;;;4913415;29;19907;-78
2023/10/17 15:34:41;;;;;;;;;;;24.60;99.90;;;;;;4908026;29;19915;-74
2023/10/17 15:37:07;;;;;;;;;;;24.60;99.90;;;;;;4914048;29;19927;-78
2023/10/17 15:39:32;;;;;;;;;;;24.60;99.90;;;;;;4916321;29;19911;-74
2023/10/17 15:41:59;;;;;;;;;;;24.50;99.90;;;;;;4916899;29;19917;-78
2023/10/17 15:44:25;;;;;;;;;;;24.50;99.90;;;;;;4916543;29;19914;-78
2023/10/17 15:46:50;;;;;;;;;;;24.40;99.90;;;;;;4920056;29;19923;-78
2023/10/17 15:49:16;;;;;;;;;;;24.40;99.90;;;;;;4915437;29;20006;-78
2023/10/17 15:51:42;;;;;;;;;;;24.40;99.90;;;;;;4901764;29;19943;-74
2023/10/17 15:54:09;;;;;;;;;;;24.30;99.90;;;;;;4901133;29;20366;-74
2023/10/17 15:56:34;;;;;;;;;;;24.20;99.90;;;;;;4901642;29;19907;-79
2023/10/17 15:59:01;;;;;;;;;;;24.20;99.90;;;;;;4901698;29;20263;-74
2023/10/17 16:01:26;;;;;;;;;;;24.20;99.90;;;;;;4917514;29;19911;-78
2023/10/17 16:03:52;;;;;;;;;;;24.20;99.90;;;;;;4920038;29;19918;-78
2023/10/17 16:06:18;;;;;;;;;;;24.20;99.90;;;;;;4920536;29;19914;-74
2023/10/17 16:08:45;;;;;;;;;;;24.20;99.90;;;;;;4909939;29;19954;-74
2023/10/17 16:11:10;;;;;;;;;;;24.20;99.90;;;;;;4919343;29;19941;-78
2023/10/17 16:13:38;;;;;;;;;;;24.20;99.90;;;;;;4920702;29;19907;-78
2023/10/17 16:16:06;;;;;;;;;;;24.30;99.90;;;;;;4934313;29;20259;-79
2023/10/17 16:18:32;;;;;;;;;;;24.40;99.90;;;;;;4937425;29;19910;-74
2023/10/17 16:20:58;;;;;;;;;;;24.40;99.90;;;;;;4920384;29;20367;-74
2023/10/17 16:23:23;;;;;;;;;;;24.40;99.90;;;;;;4920183;29;19911;-74
2023/10/17 16:25:49;;;;;;;;;;;24.20;99.90;;;;;;4920057;29;20302;-78
2023/10/17 16:28:15;;;;;;;;;;;24.10;99.90;;;;;;4933857;29;20259;-78
2023/10/17 16:30:41;;;;;;;;;;;24.10;99.90;;;;;;4938960;29;19954;-74
2023/10/17 16:33:08;;;;;;;;;;;24.10;99.90;;;;;;4939455;29;19906;-74
2023/10/17 16:35:38;;;;;;;;;;;24.10;99.90;;;;;;4938891;29;19910;-74